Time,TemperatureF,DewpointF,PressureIn,WindDirection,WindDirectionDegrees,WindSpeedMPH,WindSpeedGustMPH,Humidity,HourlyPrecipIn,Conditions,Clouds,dailyrainin,SolarRadiationWatts/m^2,SoftwareType,DateUTC
2013-05-24 00:12:00,52.0,44.0,-100.00,NE,37,4.0,7.0,73,0.00,,,0.02,0.000000,,2013-05-24 05:12:00,
2013-05-24 00:22:00,52.0,44.0,-100.00,NE,37,4.0,7.0,73,0.00,,,0.02,0.000000,,2013-05-24 05:22:00,
2013-05-24 00:32:00,52.0,44.0,-100.00,NE,37,4.0,7.0,73,0.00,,,0.02,0.000000,,2013-05-24 05:32:00,
2013-05-24 00:42:00,52.0,44.0,-100.00,NE,37,4.0,7.0,73,0.00,,,0.02,0.000000,,2013-05-24 05:42:00,
2013-05-24 01:12:00,52.0,44.0,-100.00,ENE,67,5.0,7.0,73,0.00,,,0.02,0.000000,,2013-05-24 06:12:00,
2013-05-24 01:21:00,52.0,44.0,-100.00,ENE,67,5.0,7.0,73,0.00,,,0.02,0.000000,,2013-05-24 06:21:00,
2013-05-24 01:32:00,52.0,44.0,-100.00,ENE,67,5.0,7.0,73,0.00,,,0.02,0.000000,,2013-05-24 06:32:00,
2013-05-24 01:42:00,52.0,44.0,-100.00,ENE,67,5.0,7.0,73,0.00,,,0.02,0.000000,,2013-05-24 06:42:00,
2013-05-24 02:11:00,50.0,43.0,-100.00,ENE,62,5.0,9.0,77,0.00,,,0.02,0.000000,,2013-05-24 07:11:00,
2013-05-24 02:22:00,50.0,43.0,-100.00,ENE,62,5.0,9.0,77,0.00,,,0.02,0.000000,,2013-05-24 07:22:00,
2013-05-24 02:32:00,50.0,43.0,-100.00,ENE,62,5.0,9.0,77,0.00,,,0.02,0.000000,,2013-05-24 07:32:00,
2013-05-24 02:42:00,50.0,43.0,-100.00,ENE,62,5.0,9.0,77,0.00,,,0.02,0.000000,,2013-05-24 07:42:00,
2013-05-24 03:11:00,49.0,43.0,-100.00,ENE,70,4.0,6.0,79,0.00,,,0.02,0.000000,,2013-05-24 08:11:00,
2013-05-24 03:22:00,49.0,43.0,-100.00,ENE,70,4.0,6.0,79,0.00,,,0.02,0.000000,,2013-05-24 08:22:00,
2013-05-24 03:33:00,49.0,43.0,-100.00,ENE,70,4.0,6.0,79,0.00,,,0.02,0.000000,,2013-05-24 08:33:00,
2013-05-24 03:42:00,49.0,43.0,-100.00,ENE,70,4.0,6.0,79,0.00,,,0.02,0.000000,,2013-05-24 08:42:00,
2013-05-24 04:11:00,48.0,42.0,-100.00,ENE,63,4.0,5.0,80,0.00,,,0.01,0.000000,,2013-05-24 09:11:00,
2013-05-24 04:21:00,48.0,42.0,-100.00,ENE,63,4.0,5.0,80,0.00,,,0.01,0.000000,,2013-05-24 09:21:00,
2013-05-24 04:32:00,48.0,42.0,-100.00,ENE,63,4.0,5.0,80,0.00,,,0.01,0.000000,,2013-05-24 09:32:00,
2013-05-24 04:42:00,48.0,42.0,-100.00,ENE,63,4.0,5.0,80,0.00,,,0.01,0.000000,,2013-05-24 09:42:00,
2013-05-24 05:12:00,48.0,42.0,-100.00,ENE,77,6.0,6.0,79,0.00,,,0.00,0.000000,,2013-05-24 10:12:00,
2013-05-24 05:22:00,48.0,42.0,-100.00,ENE,77,6.0,6.0,79,0.00,,,0.00,0.000000,,2013-05-24 10:22:00,
2013-05-24 05:32:00,48.0,42.0,-100.00,ENE,77,6.0,6.0,79,0.00,,,0.00,0.000000,,2013-05-24 10:32:00,
2013-05-24 05:42:00,48.0,42.0,-100.00,ENE,77,6.0,6.0,79,0.00,,,0.00,0.000000,,2013-05-24 10:42:00,
2013-05-24 06:12:00,47.0,41.0,-100.00,East,87,6.0,8.0,79,0.00,,,0.00,1.000000,,2013-05-24 11:12:00,
2013-05-24 06:22:00,47.0,41.0,-100.00,East,87,6.0,8.0,79,0.00,,,0.00,1.000000,,2013-05-24 11:22:00,
2013-05-24 06:32:00,47.0,41.0,-100.00,East,87,6.0,8.0,79,0.00,,,0.00,1.000000,,2013-05-24 11:32:00,
2013-05-24 06:42:00,47.0,41.0,-100.00,East,87,6.0,8.0,79,0.00,,,0.00,1.000000,,2013-05-24 11:42:00,
2013-05-24 07:11:00,50.0,42.0,-100.00,ESE,106,9.0,12.0,75,0.00,,,0.00,33.000000,,2013-05-24 12:11:00,
2013-05-24 07:21:00,50.0,42.0,-100.00,ESE,106,9.0,12.0,75,0.00,,,0.00,33.000000,,2013-05-24 12:21:00,
2013-05-24 07:32:00,50.0,42.0,-100.00,ESE,106,9.0,12.0,75,0.00,,,0.00,33.000000,,2013-05-24 12:32:00,
2013-05-24 07:42:00,50.0,42.0,-100.00,ESE,106,9.0,12.0,75,0.00,,,0.00,33.000000,,2013-05-24 12:42:00,
2013-05-24 08:11:00,54.0,47.0,-100.00,ESE,117,11.0,14.0,76,0.00,,,0.00,191.000000,,2013-05-24 13:11:00,
2013-05-24 08:21:00,54.0,47.0,-100.00,ESE,117,11.0,14.0,76,0.00,,,0.00,191.000000,,2013-05-24 13:21:00,
2013-05-24 08:32:00,54.0,47.0,-100.00,ESE,117,11.0,14.0,76,0.00,,,0.00,191.000000,,2013-05-24 13:32:00,
2013-05-24 08:42:00,54.0,47.0,-100.00,ESE,117,11.0,14.0,76,0.00,,,0.00,191.000000,,2013-05-24 13:42:00,
2013-05-24 09:11:00,59.0,51.0,-100.00,SSE,165,13.0,18.0,75,0.00,,,0.00,403.000000,,2013-05-24 14:11:00,
2013-05-24 09:21:00,59.0,51.0,-100.00,SSE,165,13.0,18.0,75,0.00,,,0.00,403.000000,,2013-05-24 14:21:00,
2013-05-24 09:32:00,59.0,51.0,-100.00,SSE,165,13.0,18.0,75,0.00,,,0.00,403.000000,,2013-05-24 14:32:00,
2013-05-24 09:42:00,59.0,51.0,-100.00,SSE,165,13.0,18.0,75,0.00,,,0.00,403.000000,,2013-05-24 14:42:00,
2013-05-24 10:11:00,62.0,52.0,-100.00,SE,141,12.0,19.0,70,0.00,,,0.00,619.000000,,2013-05-24 15:11:00,
2013-05-24 10:21:00,62.0,52.0,-100.00,SE,141,12.0,19.0,70,0.00,,,0.00,619.000000,,2013-05-24 15:21:00,
2013-05-24 10:32:00,62.0,52.0,-100.00,SE,141,12.0,19.0,70,0.00,,,0.00,619.000000,,2013-05-24 15:32:00,
2013-05-24 10:43:00,62.0,52.0,-100.00,SE,141,12.0,19.0,70,0.00,,,0.00,619.000000,,2013-05-24 15:43:00,
2013-05-24 11:12:00,64.0,52.0,-100.00,SE,146,12.0,19.0,66,0.00,,,0.00,804.000000,,2013-05-24 16:12:00,
2013-05-24 11:22:00,64.0,52.0,-100.00,SE,146,12.0,19.0,66,0.00,,,0.00,804.000000,,2013-05-24 16:22:00,
2013-05-24 11:32:00,64.0,52.0,-100.00,SE,146,12.0,19.0,66,0.00,,,0.00,804.000000,,2013-05-24 16:32:00,
2013-05-24 11:42:00,64.0,52.0,-100.00,SE,146,12.0,19.0,66,0.00,,,0.00,804.000000,,2013-05-24 16:42:00,
2013-05-24 12:12:00,65.0,50.0,-100.00,SE,145,11.0,26.0,59,0.00,,,0.00,773.000000,,2013-05-24 17:12:00,
2013-05-24 12:22:00,65.0,50.0,-100.00,SE,145,11.0,26.0,59,0.00,,,0.00,773.000000,,2013-05-24 17:22:00,
2013-05-24 12:32:00,65.0,50.0,-100.00,SE,145,11.0,26.0,59,0.00,,,0.00,773.000000,,2013-05-24 17:32:00,
2013-05-24 12:42:00,65.0,50.0,-100.00,SE,145,11.0,26.0,59,0.00,,,0.00,773.000000,,2013-05-24 17:42:00,
2013-05-24 13:12:00,67.0,51.0,-100.00,SSE,155,13.0,20.0,56,0.00,,,0.00,965.000000,,2013-05-24 18:12:00,
2013-05-24 13:21:00,67.0,51.0,-100.00,SSE,155,13.0,20.0,56,0.00,,,0.00,965.000000,,2013-05-24 18:21:00,
2013-05-24 13:32:00,67.0,51.0,-100.00,SSE,155,13.0,20.0,56,0.00,,,0.00,965.000000,,2013-05-24 18:32:00,
2013-05-24 13:42:00,67.0,51.0,-100.00,SSE,155,13.0,20.0,56,0.00,,,0.00,965.000000,,2013-05-24 18:42:00,
2013-05-24 14:11:00,67.0,50.0,-100.00,SE,139,13.0,23.0,54,0.00,,,0.00,1129.000000,,2013-05-24 19:11:00,
2013-05-24 14:21:00,67.0,50.0,-100.00,SE,139,13.0,23.0,54,0.00,,,0.00,1129.000000,,2013-05-24 19:21:00,
2013-05-24 14:32:00,67.0,50.0,-100.00,SE,139,13.0,23.0,54,0.00,,,0.00,1129.000000,,2013-05-24 19:32:00,
2013-05-24 14:41:00,67.0,50.0,-100.00,SE,139,13.0,23.0,54,0.00,,,0.00,1129.000000,,2013-05-24 19:41:00,
2013-05-24 15:11:00,69.0,48.0,-100.00,SE,145,15.0,23.0,48,0.00,,,0.00,1089.000000,,2013-05-24 20:11:00,
2013-05-24 15:21:00,69.0,48.0,-100.00,SE,145,15.0,23.0,48,0.00,,,0.00,1089.000000,,2013-05-24 20:21:00,
2013-05-24 15:32:00,69.0,48.0,-100.00,SE,145,15.0,23.0,48,0.00,,,0.00,1089.000000,,2013-05-24 20:32:00,
2013-05-24 15:42:00,69.0,48.0,-100.00,SE,145,15.0,23.0,48,0.00,,,0.00,1089.000000,,2013-05-24 20:42:00,
2013-05-24 16:11:00,69.0,47.0,-100.00,SSE,155,14.0,23.0,46,0.00,,,0.00,995.000000,,2013-05-24 21:11:00,
2013-05-24 16:21:00,69.0,47.0,-100.00,SSE,155,14.0,23.0,46,0.00,,,0.00,995.000000,,2013-05-24 21:21:00,
2013-05-24 16:33:00,69.0,47.0,-100.00,SSE,155,14.0,23.0,46,0.00,,,0.00,995.000000,,2013-05-24 21:33:00,
2013-05-24 16:42:00,69.0,47.0,-100.00,SSE,155,14.0,23.0,46,0.00,,,0.00,995.000000,,2013-05-24 21:42:00,
2013-05-24 17:12:00,69.0,47.0,-100.00,SSE,152,15.0,23.0,45,0.00,,,0.00,845.000000,,2013-05-24 22:12:00,
2013-05-24 17:22:00,69.0,47.0,-100.00,SSE,152,15.0,23.0,45,0.00,,,0.00,845.000000,,2013-05-24 22:22:00,
2013-05-24 17:33:00,69.0,47.0,-100.00,SSE,152,15.0,23.0,45,0.00,,,0.00,845.000000,,2013-05-24 22:33:00,
2013-05-24 17:42:00,69.0,47.0,-100.00,SSE,152,15.0,23.0,45,0.00,,,0.00,845.000000,,2013-05-24 22:42:00,
2013-05-24 18:11:00,69.0,47.0,-100.00,SSE,155,16.0,24.0,45,0.00,,,0.00,651.000000,,2013-05-24 23:11:00,
2013-05-24 18:22:00,69.0,47.0,-100.00,SSE,155,16.0,24.0,45,0.00,,,0.00,651.000000,,2013-05-24 23:22:00,
2013-05-24 18:32:00,69.0,47.0,-100.00,SSE,155,16.0,24.0,45,0.00,,,0.00,651.000000,,2013-05-24 23:32:00,
2013-05-24 18:42:00,69.0,47.0,-100.00,SSE,155,16.0,24.0,45,0.00,,,0.00,651.000000,,2013-05-24 23:42:00,
2013-05-24 19:11:00,67.0,47.0,-100.00,SE,146,13.0,20.0,48,0.00,,,0.00,424.000000,,2013-05-25 00:11:00,
2013-05-24 19:21:00,67.0,47.0,-100.00,SE,146,13.0,20.0,48,0.00,,,0.00,424.000000,,2013-05-25 00:21:00,
2013-05-24 19:32:00,67.0,47.0,-100.00,SE,146,13.0,20.0,48,0.00,,,0.00,424.000000,,2013-05-25 00:32:00,
2013-05-24 19:42:00,67.0,47.0,-100.00,SE,146,13.0,20.0,48,0.00,,,0.00,424.000000,,2013-05-25 00:42:00,
2013-05-24 20:11:00,65.0,47.0,-100.00,SE,132,11.0,19.0,53,0.00,,,0.00,39.000000,,2013-05-25 01:11:00,
2013-05-24 20:22:00,65.0,47.0,-100.00,SE,132,11.0,19.0,53,0.00,,,0.00,39.000000,,2013-05-25 01:22:00,
2013-05-24 20:32:00,65.0,47.0,-100.00,SE,132,11.0,19.0,53,0.00,,,0.00,39.000000,,2013-05-25 01:32:00,
2013-05-24 20:42:00,65.0,47.0,-100.00,SE,132,11.0,19.0,53,0.00,,,0.00,39.000000,,2013-05-25 01:42:00,
2013-05-24 21:12:00,62.0,47.0,-100.00,ENE,77,9.0,18.0,59,0.00,,,0.00,4.000000,,2013-05-25 02:12:00,
2013-05-24 21:21:00,62.0,47.0,-100.00,ENE,77,9.0,18.0,59,0.00,,,0.00,4.000000,,2013-05-25 02:21:00,
2013-05-24 21:32:00,62.0,47.0,-100.00,ENE,77,9.0,18.0,59,0.00,,,0.00,4.000000,,2013-05-25 02:32:00,
2013-05-24 21:42:00,62.0,47.0,-100.00,ENE,77,9.0,18.0,59,0.00,,,0.00,4.000000,,2013-05-25 02:42:00,
2013-05-24 22:11:00,61.0,48.0,-100.00,East,99,14.0,20.0,63,0.00,,,0.00,0.000000,,2013-05-25 03:11:00,
2013-05-24 22:21:00,61.0,48.0,-100.00,East,99,14.0,20.0,63,0.00,,,0.00,0.000000,,2013-05-25 03:21:00,
2013-05-24 22:32:00,61.0,48.0,-100.00,East,99,14.0,20.0,63,0.00,,,0.00,0.000000,,2013-05-25 03:32:00,
2013-05-24 22:43:00,61.0,48.0,-100.00,East,99,14.0,20.0,63,0.00,,,0.00,0.000000,,2013-05-25 03:43:00,
2013-05-24 23:13:00,60.0,47.0,-100.00,ESE,115,13.0,19.0,63,0.00,,,0.00,0.000000,,2013-05-25 04:13:00,
2013-05-24 23:23:00,60.0,47.0,-100.00,ESE,115,13.0,19.0,63,0.00,,,0.00,0.000000,,2013-05-25 04:23:00,
2013-05-24 23:33:00,60.0,47.0,-100.00,ESE,115,13.0,19.0,63,0.00,,,0.00,0.000000,,2013-05-25 04:33:00,
2013-05-24 23:43:00,60.0,47.0,-100.00,ESE,115,13.0,19.0,63,0.00,,,0.00,0.000000,,2013-05-25 04:43:00,